sensor_id;sensor_type;location;lat;lon;timestamp;temperature;humidity
34815;DHT22;21030;53.912;15.214;2022-08-21T00:00:17;41.10;33.00
34815;DHT22;21030;53.912;15.214;2022-08-21T00:02:45;41.30;32.90
34815;DHT22;21030;53.912;15.214;2022-08-21T00:05:13;41.60;32.70
34815;DHT22;21030;53.912;15.214;2022-08-21T00:07:40;41.60;32.40
34815;DHT22;21030;53.912;15.214;2022-08-21T00:10:07;41.60;32.00
34815;DHT22;21030;53.912;15.214;2022-08-21T00:12:34;41.50;32.40
34815;DHT22;21030;53.912;15.214;2022-08-21T00:15:00;41.40;32.50
34815;DHT22;21030;53.912;15.214;2022-08-21T00:17:27;41.50;32.50
34815;DHT22;21030;53.912;15.214;2022-08-21T00:19:54;41.60;32.50
34815;DHT22;21030;53.912;15.214;2022-08-21T00:22:21;41.60;32.40
34815;DHT22;21030;53.912;15.214;2022-08-21T00:24:48;41.50;32.30
34815;DHT22;21030;53.912;15.214;2022-08-21T00:27:15;41.60;32.30
34815;DHT22;21030;53.912;15.214;2022-08-21T00:29:42;41.40;32.50
34815;DHT22;21030;53.912;15.214;2022-08-21T00:32:09;41.30;32.20
34815;DHT22;21030;53.912;15.214;2022-08-21T00:34:36;41.10;32.60
34815;DHT22;21030;53.912;15.214;2022-08-21T00:37:02;40.70;32.60
34815;DHT22;21030;53.912;15.214;2022-08-21T00:39:29;40.80;33.00
34815;DHT22;21030;53.912;15.214;2022-08-21T00:41:56;41.00;33.00
34815;DHT22;21030;53.912;15.214;2022-08-21T00:44:23;40.80;32.90
34815;DHT22;21030;53.912;15.214;2022-08-21T00:46:50;40.70;33.20
34815;DHT22;21030;53.912;15.214;2022-08-21T00:49:17;40.50;33.40
34815;DHT22;21030;53.912;15.214;2022-08-21T00:51:54;40.50;33.40
34815;DHT22;21030;53.912;15.214;2022-08-21T00:54:22;40.50;33.40
34815;DHT22;21030;53.912;15.214;2022-08-21T00:56:52;40.40;33.40
34815;DHT22;21030;53.912;15.214;2022-08-21T00:59:21;40.30;33.60
34815;DHT22;21030;53.912;15.214;2022-08-21T01:01:48;40.50;33.40
34815;DHT22;21030;53.912;15.214;2022-08-21T01:04:16;40.50;33.40
34815;DHT22;21030;53.912;15.214;2022-08-21T01:06:43;40.60;33.30
34815;DHT22;21030;53.912;15.214;2022-08-21T01:09:10;40.40;33.00
34815;DHT22;21030;53.912;15.214;2022-08-21T01:11:37;40.30;33.50
34815;DHT22;21030;53.912;15.214;2022-08-21T01:14:04;40.30;33.60
34815;DHT22;21030;53.912;15.214;2022-08-21T01:16:31;40.40;33.50
34815;DHT22;21030;53.912;15.214;2022-08-21T01:18:59;40.00;33.80
34815;DHT22;21030;53.912;15.214;2022-08-21T01:21:26;39.80;33.70
34815;DHT22;21030;53.912;15.214;2022-08-21T01:23:54;39.50;33.60
34815;DHT22;21030;53.912;15.214;2022-08-21T01:26:26;39.60;33.90
34815;DHT22;21030;53.912;15.214;2022-08-21T01:31:45;39.80;33.80
34815;DHT22;21030;53.912;15.214;2022-08-21T01:34:12;39.70;33.80
34815;DHT22;21030;53.912;15.214;2022-08-21T01:36:39;39.70;33.60
34815;DHT22;21030;53.912;15.214;2022-08-21T01:39:07;40.20;33.20
34815;DHT22;21030;53.912;15.214;2022-08-21T01:41:34;40.00;32.80
34815;DHT22;21030;53.912;15.214;2022-08-21T01:44:01;39.80;33.00
34815;DHT22;21030;53.912;15.214;2022-08-21T01:46:28;39.80;33.60
34815;DHT22;21030;53.912;15.214;2022-08-21T01:48:55;39.60;33.40
34815;DHT22;21030;53.912;15.214;2022-08-21T01:51:22;39.40;33.40
34815;DHT22;21030;53.912;15.214;2022-08-21T01:53:49;39.30;33.50
34815;DHT22;21030;53.912;15.214;2022-08-21T01:56:16;39.30;33.60
34815;DHT22;21030;53.912;15.214;2022-08-21T01:58:44;39.40;33.20
34815;DHT22;21030;53.912;15.214;2022-08-21T02:01:12;39.60;33.60
34815;DHT22;21030;53.912;15.214;2022-08-21T02:03:39;39.50;33.50
34815;DHT22;21030;53.912;15.214;2022-08-21T02:06:06;39.80;33.40
34815;DHT22;21030;53.912;15.214;2022-08-21T02:08:34;40.20;33.00
34815;DHT22;21030;53.912;15.214;2022-08-21T02:11:00;40.50;32.60
34815;DHT22;21030;53.912;15.214;2022-08-21T02:13:27;40.00;32.60
34815;DHT22;21030;53.912;15.214;2022-08-21T02:15:54;40.10;32.70
34815;DHT22;21030;53.912;15.214;2022-08-21T02:18:21;40.30;32.90
34815;DHT22;21030;53.912;15.214;2022-08-21T02:20:49;39.90;32.70
34815;DHT22;21030;53.912;15.214;2022-08-21T02:23:22;39.90;33.00
34815;DHT22;21030;53.912;15.214;2022-08-21T02:25:53;40.00;33.00
34815;DHT22;21030;53.912;15.214;2022-08-21T02:28:21;39.70;33.50
34815;DHT22;21030;53.912;15.214;2022-08-21T02:30:48;40.20;33.20
34815;DHT22;21030;53.912;15.214;2022-08-21T02:33:15;40.10;32.90
34815;DHT22;21030;53.912;15.214;2022-08-21T02:35:44;40.10;33.00
34815;DHT22;21030;53.912;15.214;2022-08-21T02:38:12;39.90;33.00
34815;DHT22;21030;53.912;15.214;2022-08-21T02:40:40;40.30;33.10
34815;DHT22;21030;53.912;15.214;2022-08-21T02:43:14;40.10;33.10
34815;DHT22;21030;53.912;15.214;2022-08-21T02:45:42;40.60;32.70
34815;DHT22;21030;53.912;15.214;2022-08-21T02:48:10;40.80;32.20
34815;DHT22;21030;53.912;15.214;2022-08-21T02:50:40;41.20;31.90
34815;DHT22;21030;53.912;15.214;2022-08-21T02:53:07;41.20;31.70
34815;DHT22;21030;53.912;15.214;2022-08-21T02:55:35;41.00;31.60
34815;DHT22;21030;53.912;15.214;2022-08-21T02:58:03;40.80;32.00
34815;DHT22;21030;53.912;15.214;2022-08-21T03:00:30;40.70;32.00
34815;DHT22;21030;53.912;15.214;2022-08-21T03:02:58;40.80;32.10
34815;DHT22;21030;53.912;15.214;2022-08-21T03:05:26;41.00;31.90
34815;DHT22;21030;53.912;15.214;2022-08-21T03:07:53;41.20;31.70
34815;DHT22;21030;53.912;15.214;2022-08-21T03:10:21;41.20;31.60
34815;DHT22;21030;53.912;15.214;2022-08-21T03:12:48;40.90;31.70
34815;DHT22;21030;53.912;15.214;2022-08-21T03:15:16;40.30;32.40
34815;DHT22;21030;53.912;15.214;2022-08-21T03:17:45;40.10;32.80
34815;DHT22;21030;53.912;15.214;2022-08-21T03:20:13;40.20;32.70
34815;DHT22;21030;53.912;15.214;2022-08-21T03:22:41;40.40;32.50
34815;DHT22;21030;53.912;15.214;2022-08-21T03:25:14;40.40;32.60
34815;DHT22;21030;53.912;15.214;2022-08-21T03:27:40;40.50;32.60
34815;DHT22;21030;53.912;15.214;2022-08-21T03:30:09;40.70;32.30
34815;DHT22;21030;53.912;15.214;2022-08-21T03:32:36;40.90;32.00
34815;DHT22;21030;53.912;15.214;2022-08-21T03:35:03;40.90;31.90
34815;DHT22;21030;53.912;15.214;2022-08-21T03:37:30;40.70;32.00
34815;DHT22;21030;53.912;15.214;2022-08-21T03:39:58;40.50;32.10
34815;DHT22;21030;53.912;15.214;2022-08-21T03:42:25;40.10;32.40
34815;DHT22;21030;53.912;15.214;2022-08-21T03:44:52;39.70;33.30
34815;DHT22;21030;53.912;15.214;2022-08-21T03:47:19;39.20;33.50
34815;DHT22;21030;53.912;15.214;2022-08-21T03:49:46;39.20;34.20
34815;DHT22;21030;53.912;15.214;2022-08-21T03:52:13;39.20;34.10
34815;DHT22;21030;53.912;15.214;2022-08-21T03:54:40;39.40;33.80
34815;DHT22;21030;53.912;15.214;2022-08-21T03:57:08;39.70;33.50
34815;DHT22;21030;53.912;15.214;2022-08-21T03:59:36;39.50;33.60
34815;DHT22;21030;53.912;15.214;2022-08-21T04:02:03;39.90;33.60
34815;DHT22;21030;53.912;15.214;2022-08-21T04:04:31;40.10;33.20
34815;DHT22;21030;53.912;15.214;2022-08-21T04:06:57;40.20;32.90
34815;DHT22;21030;53.912;15.214;2022-08-21T04:09:25;40.30;32.90
34815;DHT22;21030;53.912;15.214;2022-08-21T04:11:52;40.30;32.60
34815;DHT22;21030;53.912;15.214;2022-08-21T04:14:19;40.60;32.60
34815;DHT22;21030;53.912;15.214;2022-08-21T04:16:46;40.70;32.30
34815;DHT22;21030;53.912;15.214;2022-08-21T04:19:13;40.80;32.00
34815;DHT22;21030;53.912;15.214;2022-08-21T04:21:40;40.90;32.00
34815;DHT22;21030;53.912;15.214;2022-08-21T04:24:09;41.20;31.70
34815;DHT22;21030;53.912;15.214;2022-08-21T04:26:37;41.30;31.50
34815;DHT22;21030;53.912;15.214;2022-08-21T04:29:04;41.40;31.20
34815;DHT22;21030;53.912;15.214;2022-08-21T04:31:35;41.50;31.10
34815;DHT22;21030;53.912;15.214;2022-08-21T04:34:05;41.60;30.90
34815;DHT22;21030;53.912;15.214;2022-08-21T04:36:32;41.60;30.70
34815;DHT22;21030;53.912;15.214;2022-08-21T04:38:59;41.70;30.40
34815;DHT22;21030;53.912;15.214;2022-08-21T04:41:28;41.70;30.30
34815;DHT22;21030;53.912;15.214;2022-08-21T04:43:55;41.80;30.20
34815;DHT22;21030;53.912;15.214;2022-08-21T04:46:22;41.80;30.10
34815;DHT22;21030;53.912;15.214;2022-08-21T04:48:49;41.70;30.00
34815;DHT22;21030;53.912;15.214;2022-08-21T04:51:17;41.70;30.00
34815;DHT22;21030;53.912;15.214;2022-08-21T04:53:50;41.70;30.00
34815;DHT22;21030;53.912;15.214;2022-08-21T04:57:03;41.70;30.00
34815;DHT22;21030;53.912;15.214;2022-08-21T04:59:13;41.80;30.10
34815;DHT22;21030;53.912;15.214;2022-08-21T05:01:42;41.80;29.90
34815;DHT22;21030;53.912;15.214;2022-08-21T05:04:10;41.80;30.00
34815;DHT22;21030;53.912;15.214;2022-08-21T05:06:38;41.80;29.90
34815;DHT22;21030;53.912;15.214;2022-08-21T05:09:07;41.50;30.20
34815;DHT22;21030;53.912;15.214;2022-08-21T05:11:35;41.40;30.40
34815;DHT22;21030;53.912;15.214;2022-08-21T05:14:03;41.40;30.30
34815;DHT22;21030;53.912;15.214;2022-08-21T05:16:30;41.20;30.50
34815;DHT22;21030;53.912;15.214;2022-08-21T05:19:04;41.10;30.70
34815;DHT22;21030;53.912;15.214;2022-08-21T05:21:31;41.30;30.40
34815;DHT22;21030;53.912;15.214;2022-08-21T05:23:59;41.20;30.40
34815;DHT22;21030;53.912;15.214;2022-08-21T05:26:26;41.20;30.60
34815;DHT22;21030;53.912;15.214;2022-08-21T05:28:53;41.30;30.70
34815;DHT22;21030;53.912;15.214;2022-08-21T05:31:22;41.00;30.70
34815;DHT22;21030;53.912;15.214;2022-08-21T05:33:49;41.20;30.80
34815;DHT22;21030;53.912;15.214;2022-08-21T05:36:18;41.20;30.90
34815;DHT22;21030;53.912;15.214;2022-08-21T05:38:45;41.10;30.80
34815;DHT22;21030;53.912;15.214;2022-08-21T05:41:13;41.10;31.00
34815;DHT22;21030;53.912;15.214;2022-08-21T05:43:40;41.40;30.70
34815;DHT22;21030;53.912;15.214;2022-08-21T05:46:07;41.60;30.60
34815;DHT22;21030;53.912;15.214;2022-08-21T05:48:35;41.80;30.30
34815;DHT22;21030;53.912;15.214;2022-08-21T05:51:09;42.00;30.00
34815;DHT22;21030;53.912;15.214;2022-08-21T05:53:36;42.00;30.00
34815;DHT22;21030;53.912;15.214;2022-08-21T05:56:04;42.10;30.00
34815;DHT22;21030;53.912;15.214;2022-08-21T05:58:32;42.00;29.80
34815;DHT22;21030;53.912;15.214;2022-08-21T06:00:59;42.00;29.90
34815;DHT22;21030;53.912;15.214;2022-08-21T06:03:32;42.20;30.00
34815;DHT22;21030;53.912;15.214;2022-08-21T06:05:59;42.00;29.90
34815;DHT22;21030;53.912;15.214;2022-08-21T06:08:27;42.00;30.00
34815;DHT22;21030;53.912;15.214;2022-08-21T06:10:55;42.20;30.00
34815;DHT22;21030;53.912;15.214;2022-08-21T06:13:22;42.20;30.00
34815;DHT22;21030;53.912;15.214;2022-08-21T06:15:59;42.10;30.00
34815;DHT22;21030;53.912;15.214;2022-08-21T06:18:26;42.20;30.00
34815;DHT22;21030;53.912;15.214;2022-08-21T06:20:53;42.30;29.70
34815;DHT22;21030;53.912;15.214;2022-08-21T06:23:23;42.50;29.80
34815;DHT22;21030;53.912;15.214;2022-08-21T06:25:59;42.60;29.60
34815;DHT22;21030;53.912;15.214;2022-08-21T06:28:26;42.70;29.50
34815;DHT22;21030;53.912;15.214;2022-08-21T06:30:53;42.60;29.50
34815;DHT22;21030;53.912;15.214;2022-08-21T06:33:20;42.60;29.50
34815;DHT22;21030;53.912;15.214;2022-08-21T06:35:47;42.50;29.50
34815;DHT22;21030;53.912;15.214;2022-08-21T06:38:15;42.50;29.50
34815;DHT22;21030;53.912;15.214;2022-08-21T06:40:42;42.40;29.60
34815;DHT22;21030;53.912;15.214;2022-08-21T06:43:14;42.30;29.70
34815;DHT22;21030;53.912;15.214;2022-08-21T06:45:42;42.50;29.70
34815;DHT22;21030;53.912;15.214;2022-08-21T06:48:09;42.60;29.60
34815;DHT22;21030;53.912;15.214;2022-08-21T06:50:41;42.60;29.40
34815;DHT22;21030;53.912;15.214;2022-08-21T06:53:12;42.70;29.40
34815;DHT22;21030;53.912;15.214;2022-08-21T06:55:39;42.80;29.40
34815;DHT22;21030;53.912;15.214;2022-08-21T06:58:06;42.70;29.30
34815;DHT22;21030;53.912;15.214;2022-08-21T07:00:34;42.80;29.40
34815;DHT22;21030;53.912;15.214;2022-08-21T07:03:01;42.80;29.30
34815;DHT22;21030;53.912;15.214;2022-08-21T07:05:29;42.90;29.30
34815;DHT22;21030;53.912;15.214;2022-08-21T07:07:56;42.70;29.40
34815;DHT22;21030;53.912;15.214;2022-08-21T07:10:24;42.60;29.40
34815;DHT22;21030;53.912;15.214;2022-08-21T07:12:51;42.80;29.40
34815;DHT22;21030;53.912;15.214;2022-08-21T07:15:27;42.80;29.40
34815;DHT22;21030;53.912;15.214;2022-08-21T07:17:55;42.70;29.20
34815;DHT22;21030;53.912;15.214;2022-08-21T07:20:22;42.80;29.30
34815;DHT22;21030;53.912;15.214;2022-08-21T07:22:50;42.70;29.20
34815;DHT22;21030;53.912;15.214;2022-08-21T07:25:17;42.70;29.30
34815;DHT22;21030;53.912;15.214;2022-08-21T07:27:44;42.90;29.10
34815;DHT22;21030;53.912;15.214;2022-08-21T07:30:11;42.90;29.20
34815;DHT22;21030;53.912;15.214;2022-08-21T07:32:37;42.90;29.10
34815;DHT22;21030;53.912;15.214;2022-08-21T07:35:04;42.60;29.20
34815;DHT22;21030;53.912;15.214;2022-08-21T07:37:31;42.70;29.30
34815;DHT22;21030;53.912;15.214;2022-08-21T07:39:58;42.60;29.20
34815;DHT22;21030;53.912;15.214;2022-08-21T07:42:25;42.50;29.30
34815;DHT22;21030;53.912;15.214;2022-08-21T07:44:54;42.40;29.50
34815;DHT22;21030;53.912;15.214;2022-08-21T07:47:22;42.50;29.30
34815;DHT22;21030;53.912;15.214;2022-08-21T07:50:09;42.60;29.30
34815;DHT22;21030;53.912;15.214;2022-08-21T07:52:36;42.30;29.30
34815;DHT22;21030;53.912;15.214;2022-08-21T07:55:03;42.30;29.30
34815;DHT22;21030;53.912;15.214;2022-08-21T07:57:32;42.30;29.30
34815;DHT22;21030;53.912;15.214;2022-08-21T07:59:59;42.50;29.20
34815;DHT22;21030;53.912;15.214;2022-08-21T08:02:28;42.50;29.20
34815;DHT22;21030;53.912;15.214;2022-08-21T08:04:59;42.60;29.20
34815;DHT22;21030;53.912;15.214;2022-08-21T08:07:27;42.30;29.30
34815;DHT22;21030;53.912;15.214;2022-08-21T08:09:54;42.50;29.60
34815;DHT22;21030;53.912;15.214;2022-08-21T08:12:21;42.40;29.30
34815;DHT22;21030;53.912;15.214;2022-08-21T08:14:48;42.30;29.20
34815;DHT22;21030;53.912;15.214;2022-08-21T08:17:15;42.50;29.10
34815;DHT22;21030;53.912;15.214;2022-08-21T08:19:42;42.50;29.00
34815;DHT22;21030;53.912;15.214;2022-08-21T08:22:13;42.50;29.20
34815;DHT22;21030;53.912;15.214;2022-08-21T08:24:41;42.30;29.20
34815;DHT22;21030;53.912;15.214;2022-08-21T08:27:08;42.50;29.20
34815;DHT22;21030;53.912;15.214;2022-08-21T08:29:35;42.60;29.00
34815;DHT22;21030;53.912;15.214;2022-08-21T08:32:02;42.90;29.10
34815;DHT22;21030;53.912;15.214;2022-08-21T08:34:29;43.00;28.90
34815;DHT22;21030;53.912;15.214;2022-08-21T08:36:57;43.20;28.70
34815;DHT22;21030;53.912;15.214;2022-08-21T08:39:26;43.30;28.40
34815;DHT22;21030;53.912;15.214;2022-08-21T08:45:16;43.50;28.20
34815;DHT22;21030;53.912;15.214;2022-08-21T08:47:47;43.60;28.10
34815;DHT22;21030;53.912;15.214;2022-08-21T08:50:22;43.50;27.70
34815;DHT22;21030;53.912;15.214;2022-08-21T08:53:06;43.30;27.90
34815;DHT22;21030;53.912;15.214;2022-08-21T08:55:41;43.40;27.90
34815;DHT22;21030;53.912;15.214;2022-08-21T08:58:11;43.50;28.10
34815;DHT22;21030;53.912;15.214;2022-08-21T09:00:39;43.50;27.30
34815;DHT22;21030;53.912;15.214;2022-08-21T09:03:06;43.60;26.80
34815;DHT22;21030;53.912;15.214;2022-08-21T09:05:43;43.80;26.90
34815;DHT22;21030;53.912;15.214;2022-08-21T09:11:04;44.00;26.70
34815;DHT22;21030;53.912;15.214;2022-08-21T09:22:16;43.60;26.20
34815;DHT22;21030;53.912;15.214;2022-08-21T09:27:21;43.60;26.30
34815;DHT22;21030;53.912;15.214;2022-08-21T09:29:49;43.70;26.10
34815;DHT22;21030;53.912;15.214;2022-08-21T09:32:18;43.80;26.00
34815;DHT22;21030;53.912;15.214;2022-08-21T09:35:05;43.90;26.10
34815;DHT22;21030;53.912;15.214;2022-08-21T09:37:34;43.80;26.30
34815;DHT22;21030;53.912;15.214;2022-08-21T09:40:02;44.00;25.90
34815;DHT22;21030;53.912;15.214;2022-08-21T09:42:30;44.10;26.20
34815;DHT22;21030;53.912;15.214;2022-08-21T09:45:04;43.90;26.00
34815;DHT22;21030;53.912;15.214;2022-08-21T09:47:32;43.40;26.30
34815;DHT22;21030;53.912;15.214;2022-08-21T09:50:07;43.40;26.60
34815;DHT22;21030;53.912;15.214;2022-08-21T09:52:34;43.50;26.70
34815;DHT22;21030;53.912;15.214;2022-08-21T09:55:00;43.50;26.40
34815;DHT22;21030;53.912;15.214;2022-08-21T09:57:47;43.40;26.50
34815;DHT22;21030;53.912;15.214;2022-08-21T10:02:49;43.70;25.90
34815;DHT22;21030;53.912;15.214;2022-08-21T10:05:17;43.50;26.10
34815;DHT22;21030;53.912;15.214;2022-08-21T10:07:44;43.40;26.20
34815;DHT22;21030;53.912;15.214;2022-08-21T10:10:17;43.30;25.80
34815;DHT22;21030;53.912;15.214;2022-08-21T10:20:40;43.40;26.00
34815;DHT22;21030;53.912;15.214;2022-08-21T10:28:44;43.60;25.70
34815;DHT22;21030;53.912;15.214;2022-08-21T10:31:36;43.50;25.80
34815;DHT22;21030;53.912;15.214;2022-08-21T10:36:47;43.70;25.90
34815;DHT22;21030;53.912;15.214;2022-08-21T10:39:35;43.80;25.70
34815;DHT22;21030;53.912;15.214;2022-08-21T10:42:13;43.70;25.50
34815;DHT22;21030;53.912;15.214;2022-08-21T10:44:55;43.60;25.80
34815;DHT22;21030;53.912;15.214;2022-08-21T10:47:29;43.60;25.70
34815;DHT22;21030;53.912;15.214;2022-08-21T10:55:06;44.10;25.60
34815;DHT22;21030;53.912;15.214;2022-08-21T10:57:41;44.10;25.10
34815;DHT22;21030;53.912;15.214;2022-08-21T11:00:12;44.00;25.30
34815;DHT22;21030;53.912;15.214;2022-08-21T11:07:36;43.80;25.30
34815;DHT22;21030;53.912;15.214;2022-08-21T11:10:08;44.00;25.50
34815;DHT22;21030;53.912;15.214;2022-08-21T11:12:39;43.80;25.30
34815;DHT22;21030;53.912;15.214;2022-08-21T11:15:16;44.00;25.20
34815;DHT22;21030;53.912;15.214;2022-08-21T11:18:39;44.10;25.10
34815;DHT22;21030;53.912;15.214;2022-08-21T11:20:54;44.10;24.90
34815;DHT22;21030;53.912;15.214;2022-08-21T11:23:28;44.10;24.60
34815;DHT22;21030;53.912;15.214;2022-08-21T11:26:00;44.10;24.50
34815;DHT22;21030;53.912;15.214;2022-08-21T11:28:32;44.20;24.90
34815;DHT22;21030;53.912;15.214;2022-08-21T11:33:42;44.30;24.90
34815;DHT22;21030;53.912;15.214;2022-08-21T11:36:29;44.00;24.90
34815;DHT22;21030;53.912;15.214;2022-08-21T11:39:41;43.90;24.30
34815;DHT22;21030;53.912;15.214;2022-08-21T11:41:59;43.40;24.40
34815;DHT22;21030;53.912;15.214;2022-08-21T11:47:15;44.20;24.30
34815;DHT22;21030;53.912;15.214;2022-08-21T11:49:53;44.40;24.30
34815;DHT22;21030;53.912;15.214;2022-08-21T11:55:12;44.30;23.80
34815;DHT22;21030;53.912;15.214;2022-08-21T12:00:12;44.70;23.90
34815;DHT22;21030;53.912;15.214;2022-08-21T12:02:42;44.50;23.70
34815;DHT22;21030;53.912;15.214;2022-08-21T12:05:11;44.60;23.90
34815;DHT22;21030;53.912;15.214;2022-08-21T12:07:48;44.90;23.50
34815;DHT22;21030;53.912;15.214;2022-08-21T12:10:32;44.50;23.60
34815;DHT22;21030;53.912;15.214;2022-08-21T12:13:06;44.50;23.50
34815;DHT22;21030;53.912;15.214;2022-08-21T12:15:36;44.70;23.50
34815;DHT22;21030;53.912;15.214;2022-08-21T12:18:04;44.90;23.90
34815;DHT22;21030;53.912;15.214;2022-08-21T12:20:34;45.10;23.60
34815;DHT22;21030;53.912;15.214;2022-08-21T12:23:04;44.90;23.60
34815;DHT22;21030;53.912;15.214;2022-08-21T12:25:39;44.90;23.40
34815;DHT22;21030;53.912;15.214;2022-08-21T12:28:08;44.70;23.60
34815;DHT22;21030;53.912;15.214;2022-08-21T12:30:38;44.70;23.70
34815;DHT22;21030;53.912;15.214;2022-08-21T12:33:16;44.70;23.90
34815;DHT22;21030;53.912;15.214;2022-08-21T12:35:44;44.40;23.80
34815;DHT22;21030;53.912;15.214;2022-08-21T12:38:23;44.10;24.00
34815;DHT22;21030;53.912;15.214;2022-08-21T12:40:55;44.10;24.10
34815;DHT22;21030;53.912;15.214;2022-08-21T12:43:27;44.10;24.50
34815;DHT22;21030;53.912;15.214;2022-08-21T12:45:55;44.20;24.40
34815;DHT22;21030;53.912;15.214;2022-08-21T12:50:53;44.10;24.30
34815;DHT22;21030;53.912;15.214;2022-08-21T12:53:27;44.10;24.40
34815;DHT22;21030;53.912;15.214;2022-08-21T12:55:55;44.10;24.10
34815;DHT22;21030;53.912;15.214;2022-08-21T12:58:28;44.10;24.10
34815;DHT22;21030;53.912;15.214;2022-08-21T13:01:03;44.20;24.40
34815;DHT22;21030;53.912;15.214;2022-08-21T13:03:30;44.20;24.50
34815;DHT22;21030;53.912;15.214;2022-08-21T13:05:58;44.40;24.60
34815;DHT22;21030;53.912;15.214;2022-08-21T13:08:26;44.20;24.50
34815;DHT22;21030;53.912;15.214;2022-08-21T13:10:58;44.20;24.60
34815;DHT22;21030;53.912;15.214;2022-08-21T13:13:39;44.20;24.50
34815;DHT22;21030;53.912;15.214;2022-08-21T13:16:33;44.20;24.60
34815;DHT22;21030;53.912;15.214;2022-08-21T13:19:05;44.20;25.10
34815;DHT22;21030;53.912;15.214;2022-08-21T13:21:34;44.00;24.30
34815;DHT22;21030;53.912;15.214;2022-08-21T13:27:14;44.10;24.50
34815;DHT22;21030;53.912;15.214;2022-08-21T13:29:41;44.00;24.50
34815;DHT22;21030;53.912;15.214;2022-08-21T13:32:21;43.70;24.40
34815;DHT22;21030;53.912;15.214;2022-08-21T13:34:49;43.70;24.90
34815;DHT22;21030;53.912;15.214;2022-08-21T13:37:20;43.70;24.90
34815;DHT22;21030;53.912;15.214;2022-08-21T13:39:49;43.90;24.90
34815;DHT22;21030;53.912;15.214;2022-08-21T13:42:17;43.90;24.70
34815;DHT22;21030;53.912;15.214;2022-08-21T13:44:46;44.00;24.90
34815;DHT22;21030;53.912;15.214;2022-08-21T13:47:15;43.80;24.70
34815;DHT22;21030;53.912;15.214;2022-08-21T13:49:43;43.80;24.70
34815;DHT22;21030;53.912;15.214;2022-08-21T13:52:18;43.80;24.60
34815;DHT22;21030;53.912;15.214;2022-08-21T13:54:52;43.80;24.80
34815;DHT22;21030;53.912;15.214;2022-08-21T13:57:25;43.60;24.80
34815;DHT22;21030;53.912;15.214;2022-08-21T13:59:52;44.00;24.90
34815;DHT22;21030;53.912;15.214;2022-08-21T14:02:20;44.10;25.00
34815;DHT22;21030;53.912;15.214;2022-08-21T14:04:56;43.80;24.70
34815;DHT22;21030;53.912;15.214;2022-08-21T14:07:25;43.60;24.70
34815;DHT22;21030;53.912;15.214;2022-08-21T14:09:53;43.70;24.70
34815;DHT22;21030;53.912;15.214;2022-08-21T14:12:28;43.80;24.60
34815;DHT22;21030;53.912;15.214;2022-08-21T14:14:56;43.80;24.80
34815;DHT22;21030;53.912;15.214;2022-08-21T14:17:31;44.00;24.90
34815;DHT22;21030;53.912;15.214;2022-08-21T14:19:59;44.10;24.70
34815;DHT22;21030;53.912;15.214;2022-08-21T14:27:33;44.00;24.50
34815;DHT22;21030;53.912;15.214;2022-08-21T14:30:09;44.10;24.60
34815;DHT22;21030;53.912;15.214;2022-08-21T14:32:40;44.00;24.60
34815;DHT22;21030;53.912;15.214;2022-08-21T14:35:11;43.80;24.80
34815;DHT22;21030;53.912;15.214;2022-08-21T14:37:42;44.00;24.30
34815;DHT22;21030;53.912;15.214;2022-08-21T14:40:10;43.70;24.40
34815;DHT22;21030;53.912;15.214;2022-08-21T14:42:42;43.90;24.30
34815;DHT22;21030;53.912;15.214;2022-08-21T14:45:15;43.60;24.60
34815;DHT22;21030;53.912;15.214;2022-08-21T14:47:46;43.80;24.50
34815;DHT22;21030;53.912;15.214;2022-08-21T14:50:14;43.80;24.70
34815;DHT22;21030;53.912;15.214;2022-08-21T14:52:41;44.00;24.70
34815;DHT22;21030;53.912;15.214;2022-08-21T14:55:08;44.20;24.50
34815;DHT22;21030;53.912;15.214;2022-08-21T14:57:37;44.30;24.50
34815;DHT22;21030;53.912;15.214;2022-08-21T15:00:05;44.10;24.30
34815;DHT22;21030;53.912;15.214;2022-08-21T15:02:32;44.20;24.20
34815;DHT22;21030;53.912;15.214;2022-08-21T15:04:59;44.20;24.10
34815;DHT22;21030;53.912;15.214;2022-08-21T15:07:26;44.40;24.10
34815;DHT22;21030;53.912;15.214;2022-08-21T15:09:53;44.30;24.20
34815;DHT22;21030;53.912;15.214;2022-08-21T15:12:20;44.40;24.00
34815;DHT22;21030;53.912;15.214;2022-08-21T15:14:47;44.40;24.00
34815;DHT22;21030;53.912;15.214;2022-08-21T15:17:14;44.50;24.20
34815;DHT22;21030;53.912;15.214;2022-08-21T15:19:42;44.50;24.20
34815;DHT22;21030;53.912;15.214;2022-08-21T15:22:09;44.50;24.00
34815;DHT22;21030;53.912;15.214;2022-08-21T15:24:45;44.40;24.10
34815;DHT22;21030;53.912;15.214;2022-08-21T15:27:12;44.20;24.10
34815;DHT22;21030;53.912;15.214;2022-08-21T15:29:42;44.20;24.30
34815;DHT22;21030;53.912;15.214;2022-08-21T15:32:19;44.20;24.40
34815;DHT22;21030;53.912;15.214;2022-08-21T15:34:51;44.30;24.20
34815;DHT22;21030;53.912;15.214;2022-08-21T15:37:19;44.20;24.40
34815;DHT22;21030;53.912;15.214;2022-08-21T15:39:46;44.20;24.30
34815;DHT22;21030;53.912;15.214;2022-08-21T15:42:19;44.20;24.40
34815;DHT22;21030;53.912;15.214;2022-08-21T15:44:46;44.30;24.50
34815;DHT22;21030;53.912;15.214;2022-08-21T15:47:14;44.40;24.40
34815;DHT22;21030;53.912;15.214;2022-08-21T15:49:42;44.40;24.20
34815;DHT22;21030;53.912;15.214;2022-08-21T15:52:15;44.20;23.90
34815;DHT22;21030;53.912;15.214;2022-08-21T15:54:42;44.30;24.00
34815;DHT22;21030;53.912;15.214;2022-08-21T15:57:09;44.20;23.80
34815;DHT22;21030;53.912;15.214;2022-08-21T15:59:42;44.20;24.10
34815;DHT22;21030;53.912;15.214;2022-08-21T16:02:11;44.30;23.90
34815;DHT22;21030;53.912;15.214;2022-08-21T16:04:39;44.30;24.00
34815;DHT22;21030;53.912;15.214;2022-08-21T16:07:06;44.10;24.10
34815;DHT22;21030;53.912;15.214;2022-08-21T16:09:35;44.20;24.30
34815;DHT22;21030;53.912;15.214;2022-08-21T16:12:03;44.20;24.30
34815;DHT22;21030;53.912;15.214;2022-08-21T16:14:31;44.20;24.10
34815;DHT22;21030;53.912;15.214;2022-08-21T16:16:59;44.40;23.90
34815;DHT22;21030;53.912;15.214;2022-08-21T16:19:28;44.20;24.00
34815;DHT22;21030;53.912;15.214;2022-08-21T16:21:55;44.20;24.10
34815;DHT22;21030;53.912;15.214;2022-08-21T16:27:17;44.00;24.00
34815;DHT22;21030;53.912;15.214;2022-08-21T16:29:45;43.80;24.40
34815;DHT22;21030;53.912;15.214;2022-08-21T16:32:12;43.60;24.50
34815;DHT22;21030;53.912;15.214;2022-08-21T16:34:40;43.50;24.70
34815;DHT22;21030;53.912;15.214;2022-08-21T16:37:08;43.40;25.00
34815;DHT22;21030;53.912;15.214;2022-08-21T16:39:35;43.70;25.00
34815;DHT22;21030;53.912;15.214;2022-08-21T16:42:03;43.70;25.00